Terminal Aerodrome Forecast
Issued by NWS Cheyenne, WY

Home | Current Version | Previous Version | Text Only | Print | Product List | Glossary On
Versions: 1 2 3 4 5 6 7 8 9 10 11 12 13 14 15
000
FTUS45 KCYS 222347
TAFCYS
TAF
KCYS 222347Z 2300/2324 04014KT P6SM VCSH SCT100
     FM230700 02006KT P6SM SCT008 OVC015
     FM231000 04006KT P6SM BKN008
     FM231800 09009KT P6SM -SHRA SCT008 OVC015=

USA.gov is the U.S. government's official web portal to all federal, state and local government web resources and services.